Amelia Island, Florida
Current Conditions -  °F | °C
As of 9:35 AM on Friday 28 Nov 2014 (Local Time) from KFHB Reporting Station
Clear Clear  
Wind Chill:   Ceiling: Unl
Heat Index:   Visibility: 10mi
Dew Point:   Wind: 12mph
Humidity: 62%   Direction: 340°NNW
Pressure: 30.36"   Gusts: NA
Location:  30.6056°N, 81.5268°W
Report Text: KFHB 281435Z AUTO 34010KT 10SM CLR 09/02 A3036 RMK AO1
Loading
Personal Weather Stations






























Interactive Weather Map New forecast layout! Learn more

10-Day Weather Forecast

Advertisements
Track Severe Weather on mobile